sensor_id;sensor_type;location;lat;lon;timestamp;P1;durP1;ratioP1;P2;durP2;ratioP2
20124;SDS011;10223;50.862;4.360;2022-11-23T00:01:10;10.67;;;2.13;;
20124;SDS011;10223;50.862;4.360;2022-11-23T00:03:43;15.87;;;2.50;;
20124;SDS011;10223;50.862;4.360;2022-11-23T00:06:10;7.90;;;2.03;;
20124;SDS011;10223;50.862;4.360;2022-11-23T00:08:37;10.03;;;1.93;;
20124;SDS011;10223;50.862;4.360;2022-11-23T00:11:04;12.50;;;2.50;;
20124;SDS011;10223;50.862;4.360;2022-11-23T00:13:31;5.57;;;1.67;;
20124;SDS011;10223;50.862;4.360;2022-11-23T00:16:00;11.20;;;2.10;;
20124;SDS011;10223;50.862;4.360;2022-11-23T00:18:29;9.40;;;1.77;;
20124;SDS011;10223;50.862;4.360;2022-11-23T00:20:56;15.77;;;2.00;;
20124;SDS011;10223;50.862;4.360;2022-11-23T00:23:23;7.13;;;2.03;;
20124;SDS011;10223;50.862;4.360;2022-11-23T00:25:50;12.00;;;2.27;;
20124;SDS011;10223;50.862;4.360;2022-11-23T00:28:17;12.60;;;1.90;;
20124;SDS011;10223;50.862;4.360;2022-11-23T00:30:48;17.90;;;2.23;;
20124;SDS011;10223;50.862;4.360;2022-11-23T00:33:15;10.80;;;1.70;;
20124;SDS011;10223;50.862;4.360;2022-11-23T00:35:43;11.80;;;1.87;;
20124;SDS011;10223;50.862;4.360;2022-11-23T00:38:10;9.37;;;2.13;;
20124;SDS011;10223;50.862;4.360;2022-11-23T00:40:37;12.20;;;2.17;;
20124;SDS011;10223;50.862;4.360;2022-11-23T00:43:04;10.47;;;1.80;;
20124;SDS011;10223;50.862;4.360;2022-11-23T00:45:31;7.80;;;1.20;;
20124;SDS011;10223;50.862;4.360;2022-11-23T00:47:59;12.93;;;2.03;;
20124;SDS011;10223;50.862;4.360;2022-11-23T00:50:26;8.00;;;1.73;;
20124;SDS011;10223;50.862;4.360;2022-11-23T00:52:53;11.30;;;1.70;;
20124;SDS011;10223;50.862;4.360;2022-11-23T00:55:20;12.80;;;1.93;;
20124;SDS011;10223;50.862;4.360;2022-11-23T00:57:47;14.97;;;2.30;;
20124;SDS011;10223;50.862;4.360;2022-11-23T01:00:14;12.60;;;1.90;;
20124;SDS011;10223;50.862;4.360;2022-11-23T01:02:42;14.97;;;2.23;;
20124;SDS011;10223;50.862;4.360;2022-11-23T01:05:10;7.93;;;1.80;;
20124;SDS011;10223;50.862;4.360;2022-11-23T01:07:37;7.47;;;1.83;;
20124;SDS011;10223;50.862;4.360;2022-11-23T01:10:04;7.47;;;1.83;;
20124;SDS011;10223;50.862;4.360;2022-11-23T01:12:32;10.87;;;1.97;;
20124;SDS011;10223;50.862;4.360;2022-11-23T01:14:59;11.40;;;1.57;;
20124;SDS011;10223;50.862;4.360;2022-11-23T01:17:26;15.87;;;2.30;;
20124;SDS011;10223;50.862;4.360;2022-11-23T01:19:53;10.30;;;1.67;;
20124;SDS011;10223;50.862;4.360;2022-11-23T01:22:21;13.17;;;2.20;;
20124;SDS011;10223;50.862;4.360;2022-11-23T01:24:48;13.70;;;2.13;;
20124;SDS011;10223;50.862;4.360;2022-11-23T01:27:15;11.37;;;2.10;;
20124;SDS011;10223;50.862;4.360;2022-11-23T01:29:42;12.83;;;1.90;;
20124;SDS011;10223;50.862;4.360;2022-11-23T01:32:09;12.40;;;2.40;;
20124;SDS011;10223;50.862;4.360;2022-11-23T01:34:36;15.23;;;2.63;;
20124;SDS011;10223;50.862;4.360;2022-11-23T01:37:03;15.47;;;3.00;;
20124;SDS011;10223;50.862;4.360;2022-11-23T01:39:31;16.07;;;2.47;;
20124;SDS011;10223;50.862;4.360;2022-11-23T01:41:58;10.40;;;2.10;;
20124;SDS011;10223;50.862;4.360;2022-11-23T01:44:26;16.17;;;2.40;;
20124;SDS011;10223;50.862;4.360;2022-11-23T01:46:55;10.90;;;2.20;;
20124;SDS011;10223;50.862;4.360;2022-11-23T01:49:23;11.17;;;2.47;;
20124;SDS011;10223;50.862;4.360;2022-11-23T01:51:53;10.37;;;2.57;;
20124;SDS011;10223;50.862;4.360;2022-11-23T01:54:26;12.93;;;2.10;;
20124;SDS011;10223;50.862;4.360;2022-11-23T01:56:58;13.27;;;1.87;;
20124;SDS011;10223;50.862;4.360;2022-11-23T01:59:28;15.07;;;2.83;;
20124;SDS011;10223;50.862;4.360;2022-11-23T02:01:58;7.97;;;1.80;;
20124;SDS011;10223;50.862;4.360;2022-11-23T02:04:26;7.03;;;1.97;;
20124;SDS011;10223;50.862;4.360;2022-11-23T02:06:57;12.60;;;2.13;;
20124;SDS011;10223;50.862;4.360;2022-11-23T02:09:26;12.10;;;2.13;;
20124;SDS011;10223;50.862;4.360;2022-11-23T02:11:57;11.30;;;2.10;;
20124;SDS011;10223;50.862;4.360;2022-11-23T02:14:25;15.87;;;2.07;;
20124;SDS011;10223;50.862;4.360;2022-11-23T02:16:52;13.47;;;2.00;;
20124;SDS011;10223;50.862;4.360;2022-11-23T02:19:21;11.17;;;1.77;;
20124;SDS011;10223;50.862;4.360;2022-11-23T02:21:54;7.87;;;2.00;;
20124;SDS011;10223;50.862;4.360;2022-11-23T02:24:22;6.40;;;1.80;;
20124;SDS011;10223;50.862;4.360;2022-11-23T02:26:54;13.60;;;2.47;;
20124;SDS011;10223;50.862;4.360;2022-11-23T02:29:23;15.13;;;2.27;;
20124;SDS011;10223;50.862;4.360;2022-11-23T02:31:50;13.50;;;2.53;;
20124;SDS011;10223;50.862;4.360;2022-11-23T02:34:18;10.43;;;2.20;;
20124;SDS011;10223;50.862;4.360;2022-11-23T02:36:45;9.80;;;2.27;;
20124;SDS011;10223;50.862;4.360;2022-11-23T02:39:14;17.73;;;2.17;;
20124;SDS011;10223;50.862;4.360;2022-11-23T02:41:44;10.33;;;2.27;;
20124;SDS011;10223;50.862;4.360;2022-11-23T02:44:17;15.20;;;2.40;;
20124;SDS011;10223;50.862;4.360;2022-11-23T02:46:50;16.07;;;3.27;;
20124;SDS011;10223;50.862;4.360;2022-11-23T02:49:18;9.47;;;2.10;;
20124;SDS011;10223;50.862;4.360;2022-11-23T02:51:45;19.00;;;2.57;;
20124;SDS011;10223;50.862;4.360;2022-11-23T02:54:12;13.67;;;2.37;;
20124;SDS011;10223;50.862;4.360;2022-11-23T02:56:38;12.77;;;2.40;;
20124;SDS011;10223;50.862;4.360;2022-11-23T02:59:05;14.43;;;2.97;;
20124;SDS011;10223;50.862;4.360;2022-11-23T03:01:34;12.47;;;2.10;;
20124;SDS011;10223;50.862;4.360;2022-11-23T03:04:01;20.00;;;2.67;;
20124;SDS011;10223;50.862;4.360;2022-11-23T03:06:28;16.40;;;2.73;;
20124;SDS011;10223;50.862;4.360;2022-11-23T03:08:55;18.20;;;2.97;;
20124;SDS011;10223;50.862;4.360;2022-11-23T03:11:21;17.13;;;2.40;;
20124;SDS011;10223;50.862;4.360;2022-11-23T03:13:48;19.57;;;2.80;;
20124;SDS011;10223;50.862;4.360;2022-11-23T03:16:15;15.87;;;2.30;;
20124;SDS011;10223;50.862;4.360;2022-11-23T03:18:44;14.23;;;2.77;;
20124;SDS011;10223;50.862;4.360;2022-11-23T03:21:10;10.77;;;2.50;;
20124;SDS011;10223;50.862;4.360;2022-11-23T03:23:37;15.83;;;3.33;;
20124;SDS011;10223;50.862;4.360;2022-11-23T03:26:07;9.27;;;2.33;;
20124;SDS011;10223;50.862;4.360;2022-11-23T03:28:34;14.63;;;2.97;;
20124;SDS011;10223;50.862;4.360;2022-11-23T03:31:01;15.57;;;2.40;;
20124;SDS011;10223;50.862;4.360;2022-11-23T03:33:28;11.77;;;2.33;;
20124;SDS011;10223;50.862;4.360;2022-11-23T03:35:56;12.70;;;2.13;;
20124;SDS011;10223;50.862;4.360;2022-11-23T03:38:23;19.03;;;2.43;;
20124;SDS011;10223;50.862;4.360;2022-11-23T03:40:50;11.50;;;2.73;;
20124;SDS011;10223;50.862;4.360;2022-11-23T03:43:17;15.07;;;2.90;;
20124;SDS011;10223;50.862;4.360;2022-11-23T03:45:45;17.77;;;2.87;;
20124;SDS011;10223;50.862;4.360;2022-11-23T03:48:12;15.43;;;2.17;;
20124;SDS011;10223;50.862;4.360;2022-11-23T03:50:39;19.83;;;3.10;;
20124;SDS011;10223;50.862;4.360;2022-11-23T03:53:08;10.67;;;2.50;;
20124;SDS011;10223;50.862;4.360;2022-11-23T03:55:34;14.93;;;2.10;;
20124;SDS011;10223;50.862;4.360;2022-11-23T03:58:01;19.77;;;2.50;;
20124;SDS011;10223;50.862;4.360;2022-11-23T04:00:29;12.97;;;2.07;;
20124;SDS011;10223;50.862;4.360;2022-11-23T04:02:56;17.43;;;3.10;;
20124;SDS011;10223;50.862;4.360;2022-11-23T04:05:23;15.43;;;2.93;;
20124;SDS011;10223;50.862;4.360;2022-11-23T04:07:52;13.80;;;3.67;;
20124;SDS011;10223;50.862;4.360;2022-11-23T04:10:20;12.57;;;2.67;;
20124;SDS011;10223;50.862;4.360;2022-11-23T04:12:49;19.93;;;2.40;;
20124;SDS011;10223;50.862;4.360;2022-11-23T04:15:16;10.83;;;2.47;;
20124;SDS011;10223;50.862;4.360;2022-11-23T04:17:46;10.87;;;2.83;;
20124;SDS011;10223;50.862;4.360;2022-11-23T04:20:13;18.47;;;2.97;;
20124;SDS011;10223;50.862;4.360;2022-11-23T04:22:40;17.70;;;3.50;;
20124;SDS011;10223;50.862;4.360;2022-11-23T04:25:08;13.50;;;2.63;;
20124;SDS011;10223;50.862;4.360;2022-11-23T04:27:36;14.50;;;3.07;;
20124;SDS011;10223;50.862;4.360;2022-11-23T04:30:03;14.83;;;2.90;;
20124;SDS011;10223;50.862;4.360;2022-11-23T04:32:31;17.37;;;2.60;;
20124;SDS011;10223;50.862;4.360;2022-11-23T04:34:58;13.93;;;2.83;;
20124;SDS011;10223;50.862;4.360;2022-11-23T04:37:25;10.93;;;2.33;;
20124;SDS011;10223;50.862;4.360;2022-11-23T04:39:52;11.90;;;2.53;;
20124;SDS011;10223;50.862;4.360;2022-11-23T04:42:19;20.60;;;2.80;;
20124;SDS011;10223;50.862;4.360;2022-11-23T04:44:47;17.90;;;2.77;;
20124;SDS011;10223;50.862;4.360;2022-11-23T04:47:14;11.00;;;2.47;;
20124;SDS011;10223;50.862;4.360;2022-11-23T04:49:41;13.40;;;2.60;;
20124;SDS011;10223;50.862;4.360;2022-11-23T04:52:08;17.87;;;3.13;;
20124;SDS011;10223;50.862;4.360;2022-11-23T04:54:36;9.03;;;2.20;;
20124;SDS011;10223;50.862;4.360;2022-11-23T04:57:03;14.67;;;2.63;;
20124;SDS011;10223;50.862;4.360;2022-11-23T04:59:30;14.67;;;2.43;;
20124;SDS011;10223;50.862;4.360;2022-11-23T05:01:58;13.00;;;2.90;;
20124;SDS011;10223;50.862;4.360;2022-11-23T05:04:25;11.60;;;2.83;;
20124;SDS011;10223;50.862;4.360;2022-11-23T05:06:52;12.03;;;2.43;;
20124;SDS011;10223;50.862;4.360;2022-11-23T05:09:19;22.37;;;3.20;;
20124;SDS011;10223;50.862;4.360;2022-11-23T05:11:46;15.83;;;3.13;;
20124;SDS011;10223;50.862;4.360;2022-11-23T05:14:13;15.30;;;2.73;;
20124;SDS011;10223;50.862;4.360;2022-11-23T05:16:40;16.20;;;2.40;;
20124;SDS011;10223;50.862;4.360;2022-11-23T05:19:08;15.57;;;2.43;;
20124;SDS011;10223;50.862;4.360;2022-11-23T05:21:35;14.00;;;2.27;;
20124;SDS011;10223;50.862;4.360;2022-11-23T05:24:02;17.77;;;3.07;;
20124;SDS011;10223;50.862;4.360;2022-11-23T05:26:29;12.47;;;2.60;;
20124;SDS011;10223;50.862;4.360;2022-11-23T05:28:56;13.30;;;2.80;;
20124;SDS011;10223;50.862;4.360;2022-11-23T05:31:23;9.73;;;2.20;;
20124;SDS011;10223;50.862;4.360;2022-11-23T05:33:50;12.50;;;2.77;;
20124;SDS011;10223;50.862;4.360;2022-11-23T05:36:18;18.47;;;3.20;;
20124;SDS011;10223;50.862;4.360;2022-11-23T05:38:46;17.77;;;2.80;;
20124;SDS011;10223;50.862;4.360;2022-11-23T05:41:13;15.10;;;2.77;;
20124;SDS011;10223;50.862;4.360;2022-11-23T05:43:40;14.33;;;3.40;;
20124;SDS011;10223;50.862;4.360;2022-11-23T05:46:07;15.50;;;2.70;;
20124;SDS011;10223;50.862;4.360;2022-11-23T05:48:34;14.43;;;2.60;;
20124;SDS011;10223;50.862;4.360;2022-11-23T05:51:01;19.93;;;3.00;;
20124;SDS011;10223;50.862;4.360;2022-11-23T05:53:32;15.63;;;2.40;;
20124;SDS011;10223;50.862;4.360;2022-11-23T05:56:00;16.67;;;2.67;;
20124;SDS011;10223;50.862;4.360;2022-11-23T05:58:27;13.17;;;2.83;;
20124;SDS011;10223;50.862;4.360;2022-11-23T06:00:56;17.97;;;2.80;;
20124;SDS011;10223;50.862;4.360;2022-11-23T06:03:23;12.30;;;2.63;;
20124;SDS011;10223;50.862;4.360;2022-11-23T06:05:50;12.83;;;3.17;;
20124;SDS011;10223;50.862;4.360;2022-11-23T06:08:17;13.23;;;2.20;;
20124;SDS011;10223;50.862;4.360;2022-11-23T06:10:46;16.13;;;2.40;;
20124;SDS011;10223;50.862;4.360;2022-11-23T06:13:13;15.10;;;2.30;;
20124;SDS011;10223;50.862;4.360;2022-11-23T06:15:40;14.67;;;2.63;;
20124;SDS011;10223;50.862;4.360;2022-11-23T06:18:07;17.37;;;4.47;;
20124;SDS011;10223;50.862;4.360;2022-11-23T06:20:34;15.20;;;3.43;;
20124;SDS011;10223;50.862;4.360;2022-11-23T06:23:02;12.33;;;2.60;;
20124;SDS011;10223;50.862;4.360;2022-11-23T06:25:29;11.03;;;2.70;;
20124;SDS011;10223;50.862;4.360;2022-11-23T06:27:58;17.57;;;2.43;;
20124;SDS011;10223;50.862;4.360;2022-11-23T06:30:26;20.37;;;3.33;;
20124;SDS011;10223;50.862;4.360;2022-11-23T06:32:54;14.83;;;2.70;;
20124;SDS011;10223;50.862;4.360;2022-11-23T06:35:21;15.90;;;2.70;;
20124;SDS011;10223;50.862;4.360;2022-11-23T06:37:49;13.27;;;2.40;;
20124;SDS011;10223;50.862;4.360;2022-11-23T06:40:17;11.90;;;2.47;;
20124;SDS011;10223;50.862;4.360;2022-11-23T06:42:44;18.27;;;2.93;;
20124;SDS011;10223;50.862;4.360;2022-11-23T06:45:13;17.03;;;2.77;;
20124;SDS011;10223;50.862;4.360;2022-11-23T06:47:40;10.83;;;2.13;;
20124;SDS011;10223;50.862;4.360;2022-11-23T06:50:08;16.63;;;4.30;;
20124;SDS011;10223;50.862;4.360;2022-11-23T06:52:35;13.03;;;3.10;;
20124;SDS011;10223;50.862;4.360;2022-11-23T06:55:02;13.83;;;3.67;;
20124;SDS011;10223;50.862;4.360;2022-11-23T06:57:29;20.57;;;3.57;;
20124;SDS011;10223;50.862;4.360;2022-11-23T06:59:56;11.07;;;3.00;;
20124;SDS011;10223;50.862;4.360;2022-11-23T07:02:24;14.63;;;2.60;;
20124;SDS011;10223;50.862;4.360;2022-11-23T07:04:51;17.40;;;5.73;;
20124;SDS011;10223;50.862;4.360;2022-11-23T07:07:18;31.87;;;5.73;;
20124;SDS011;10223;50.862;4.360;2022-11-23T07:09:44;12.17;;;2.97;;
20124;SDS011;10223;50.862;4.360;2022-11-23T07:12:12;14.07;;;2.90;;
20124;SDS011;10223;50.862;4.360;2022-11-23T07:14:38;18.03;;;3.87;;
20124;SDS011;10223;50.862;4.360;2022-11-23T07:17:05;12.77;;;2.67;;
20124;SDS011;10223;50.862;4.360;2022-11-23T07:19:34;15.57;;;2.77;;
20124;SDS011;10223;50.862;4.360;2022-11-23T07:22:00;21.93;;;3.87;;
20124;SDS011;10223;50.862;4.360;2022-11-23T07:24:27;19.67;;;4.53;;
20124;SDS011;10223;50.862;4.360;2022-11-23T07:26:54;20.60;;;3.67;;
20124;SDS011;10223;50.862;4.360;2022-11-23T07:29:21;13.87;;;2.93;;
20124;SDS011;10223;50.862;4.360;2022-11-23T07:31:48;17.10;;;3.00;;
20124;SDS011;10223;50.862;4.360;2022-11-23T07:34:15;17.47;;;3.13;;
20124;SDS011;10223;50.862;4.360;2022-11-23T07:36:44;14.43;;;3.23;;
20124;SDS011;10223;50.862;4.360;2022-11-23T07:39:11;12.50;;;3.13;;
20124;SDS011;10223;50.862;4.360;2022-11-23T07:41:38;10.80;;;2.73;;
20124;SDS011;10223;50.862;4.360;2022-11-23T07:44:07;13.83;;;3.00;;
20124;SDS011;10223;50.862;4.360;2022-11-23T07:46:34;18.27;;;3.00;;
20124;SDS011;10223;50.862;4.360;2022-11-23T07:49:03;15.97;;;3.47;;
20124;SDS011;10223;50.862;4.360;2022-11-23T07:51:31;12.13;;;2.93;;
20124;SDS011;10223;50.862;4.360;2022-11-23T07:53:59;9.60;;;2.77;;
20124;SDS011;10223;50.862;4.360;2022-11-23T07:56:26;13.90;;;3.30;;
20124;SDS011;10223;50.862;4.360;2022-11-23T07:58:53;16.13;;;3.00;;
20124;SDS011;10223;50.862;4.360;2022-11-23T08:01:20;16.03;;;3.20;;
20124;SDS011;10223;50.862;4.360;2022-11-23T08:03:47;12.13;;;3.03;;
20124;SDS011;10223;50.862;4.360;2022-11-23T08:06:14;11.53;;;2.77;;
20124;SDS011;10223;50.862;4.360;2022-11-23T08:08:42;13.10;;;2.90;;
20124;SDS011;10223;50.862;4.360;2022-11-23T08:11:10;13.67;;;3.00;;
20124;SDS011;10223;50.862;4.360;2022-11-23T08:13:41;13.50;;;3.10;;
20124;SDS011;10223;50.862;4.360;2022-11-23T08:16:08;14.47;;;3.20;;
20124;SDS011;10223;50.862;4.360;2022-11-23T08:18:35;17.00;;;3.53;;
20124;SDS011;10223;50.862;4.360;2022-11-23T08:21:04;17.83;;;3.83;;
20124;SDS011;10223;50.862;4.360;2022-11-23T08:23:31;10.87;;;3.40;;
20124;SDS011;10223;50.862;4.360;2022-11-23T08:26:01;14.63;;;3.70;;
20124;SDS011;10223;50.862;4.360;2022-11-23T08:28:30;14.00;;;3.10;;
20124;SDS011;10223;50.862;4.360;2022-11-23T08:30:56;19.17;;;3.97;;
20124;SDS011;10223;50.862;4.360;2022-11-23T08:33:23;20.13;;;3.17;;
20124;SDS011;10223;50.862;4.360;2022-11-23T08:35:52;16.27;;;3.37;;
20124;SDS011;10223;50.862;4.360;2022-11-23T08:38:19;14.13;;;2.90;;
20124;SDS011;10223;50.862;4.360;2022-11-23T08:40:45;11.67;;;3.13;;
20124;SDS011;10223;50.862;4.360;2022-11-23T08:43:12;17.07;;;3.53;;
20124;SDS011;10223;50.862;4.360;2022-11-23T08:45:41;15.13;;;2.80;;
20124;SDS011;10223;50.862;4.360;2022-11-23T08:48:08;14.00;;;3.00;;
20124;SDS011;10223;50.862;4.360;2022-11-23T08:50:35;8.20;;;2.63;;
20124;SDS011;10223;50.862;4.360;2022-11-23T08:53:02;11.40;;;3.27;;
20124;SDS011;10223;50.862;4.360;2022-11-23T08:55:29;13.30;;;3.23;;
20124;SDS011;10223;50.862;4.360;2022-11-23T08:57:57;12.27;;;2.80;;
20124;SDS011;10223;50.862;4.360;2022-11-23T09:00:24;13.67;;;2.60;;
20124;SDS011;10223;50.862;4.360;2022-11-23T09:02:53;15.20;;;3.00;;
20124;SDS011;10223;50.862;4.360;2022-11-23T09:05:23;11.03;;;2.57;;
20124;SDS011;10223;50.862;4.360;2022-11-23T09:07:50;8.80;;;2.57;;
20124;SDS011;10223;50.862;4.360;2022-11-23T09:10:17;10.30;;;2.43;;
20124;SDS011;10223;50.862;4.360;2022-11-23T09:12:44;11.07;;;2.60;;
20124;SDS011;10223;50.862;4.360;2022-11-23T09:15:11;12.40;;;3.43;;
20124;SDS011;10223;50.862;4.360;2022-11-23T09:17:38;10.00;;;3.13;;
20124;SDS011;10223;50.862;4.360;2022-11-23T09:20:07;11.30;;;3.00;;
20124;SDS011;10223;50.862;4.360;2022-11-23T09:22:35;10.30;;;2.80;;
20124;SDS011;10223;50.862;4.360;2022-11-23T09:25:02;8.63;;;3.30;;
20124;SDS011;10223;50.862;4.360;2022-11-23T09:27:30;11.67;;;3.00;;
20124;SDS011;10223;50.862;4.360;2022-11-23T09:29:57;10.87;;;2.87;;
20124;SDS011;10223;50.862;4.360;2022-11-23T09:32:24;10.77;;;2.90;;
20124;SDS011;10223;50.862;4.360;2022-11-23T09:34:51;11.10;;;2.77;;
20124;SDS011;10223;50.862;4.360;2022-11-23T09:37:20;16.70;;;2.90;;
20124;SDS011;10223;50.862;4.360;2022-11-23T09:39:46;14.50;;;2.80;;
20124;SDS011;10223;50.862;4.360;2022-11-23T09:42:21;8.50;;;2.63;;
20124;SDS011;10223;50.862;4.360;2022-11-23T09:45:08;11.57;;;2.60;;
20124;SDS011;10223;50.862;4.360;2022-11-23T09:47:48;6.13;;;2.40;;
20124;SDS011;10223;50.862;4.360;2022-11-23T09:50:26;10.33;;;2.80;;
20124;SDS011;10223;50.862;4.360;2022-11-23T09:52:59;10.07;;;2.53;;
20124;SDS011;10223;50.862;4.360;2022-11-23T09:55:32;13.67;;;2.90;;
20124;SDS011;10223;50.862;4.360;2022-11-23T09:58:05;12.00;;;3.17;;
20124;SDS011;10223;50.862;4.360;2022-11-23T10:00:34;3.80;;;1.47;;
20124;SDS011;10223;50.862;4.360;2022-11-23T10:03:03;12.10;;;3.33;;
20124;SDS011;10223;50.862;4.360;2022-11-23T10:05:31;9.70;;;2.73;;
20124;SDS011;10223;50.862;4.360;2022-11-23T10:08:05;9.27;;;2.60;;
20124;SDS011;10223;50.862;4.360;2022-11-23T10:10:40;8.57;;;2.30;;
20124;SDS011;10223;50.862;4.360;2022-11-23T10:13:14;6.00;;;2.23;;
20124;SDS011;10223;50.862;4.360;2022-11-23T10:15:54;10.07;;;2.87;;
20124;SDS011;10223;50.862;4.360;2022-11-23T10:18:35;9.13;;;2.23;;
20124;SDS011;10223;50.862;4.360;2022-11-23T10:21:12;9.63;;;2.30;;
20124;SDS011;10223;50.862;4.360;2022-11-23T10:23:52;7.87;;;2.13;;
20124;SDS011;10223;50.862;4.360;2022-11-23T10:26:23;6.17;;;1.90;;
20124;SDS011;10223;50.862;4.360;2022-11-23T10:28:55;8.27;;;1.97;;
20124;SDS011;10223;50.862;4.360;2022-11-23T10:31:27;7.93;;;2.23;;
20124;SDS011;10223;50.862;4.360;2022-11-23T10:33:57;8.93;;;2.03;;
20124;SDS011;10223;50.862;4.360;2022-11-23T10:36:29;8.03;;;1.93;;
20124;SDS011;10223;50.862;4.360;2022-11-23T10:38:58;8.00;;;2.27;;
20124;SDS011;10223;50.862;4.360;2022-11-23T10:41:28;9.83;;;2.20;;
20124;SDS011;10223;50.862;4.360;2022-11-23T10:44:03;6.53;;;2.00;;
20124;SDS011;10223;50.862;4.360;2022-11-23T10:46:36;6.87;;;2.00;;
20124;SDS011;10223;50.862;4.360;2022-11-23T10:49:11;6.93;;;1.93;;
20124;SDS011;10223;50.862;4.360;2022-11-23T10:51:47;8.53;;;2.30;;
20124;SDS011;10223;50.862;4.360;2022-11-23T10:54:18;7.23;;;2.30;;
20124;SDS011;10223;50.862;4.360;2022-11-23T10:56:51;9.07;;;2.07;;
20124;SDS011;10223;50.862;4.360;2022-11-23T10:59:26;7.80;;;2.03;;
20124;SDS011;10223;50.862;4.360;2022-11-23T11:01:58;14.30;;;2.50;;
20124;SDS011;10223;50.862;4.360;2022-11-23T11:04:36;9.63;;;2.00;;
20124;SDS011;10223;50.862;4.360;2022-11-23T11:07:15;8.00;;;2.10;;
20124;SDS011;10223;50.862;4.360;2022-11-23T11:09:54;11.07;;;2.30;;
20124;SDS011;10223;50.862;4.360;2022-11-23T11:12:22;8.30;;;2.30;;
20124;SDS011;10223;50.862;4.360;2022-11-23T11:14:56;6.73;;;1.67;;
20124;SDS011;10223;50.862;4.360;2022-11-23T11:17:28;8.60;;;2.57;;
20124;SDS011;10223;50.862;4.360;2022-11-23T11:19:56;11.80;;;2.37;;
20124;SDS011;10223;50.862;4.360;2022-11-23T11:22:31;5.43;;;1.20;;
20124;SDS011;10223;50.862;4.360;2022-11-23T11:25:05;7.03;;;1.80;;
20124;SDS011;10223;50.862;4.360;2022-11-23T11:27:32;4.80;;;1.70;;
20124;SDS011;10223;50.862;4.360;2022-11-23T11:30:03;7.00;;;1.90;;
20124;SDS011;10223;50.862;4.360;2022-11-23T11:32:33;7.43;;;1.70;;
20124;SDS011;10223;50.862;4.360;2022-11-23T11:35:09;7.23;;;1.80;;
20124;SDS011;10223;50.862;4.360;2022-11-23T11:37:39;8.47;;;1.30;;
20124;SDS011;10223;50.862;4.360;2022-11-23T11:40:12;5.87;;;1.30;;
20124;SDS011;10223;50.862;4.360;2022-11-23T11:42:46;10.53;;;1.90;;
20124;SDS011;10223;50.862;4.360;2022-11-23T11:45:18;5.83;;;1.40;;
20124;SDS011;10223;50.862;4.360;2022-11-23T11:47:50;6.43;;;1.90;;
20124;SDS011;10223;50.862;4.360;2022-11-23T11:50:23;2.37;;;1.20;;
20124;SDS011;10223;50.862;4.360;2022-11-23T11:52:54;7.00;;;1.77;;
20124;SDS011;10223;50.862;4.360;2022-11-23T11:55:27;8.03;;;1.70;;
20124;SDS011;10223;50.862;4.360;2022-11-23T11:58:01;3.57;;;1.50;;
20124;SDS011;10223;50.862;4.360;2022-11-23T12:00:29;7.93;;;1.33;;
20124;SDS011;10223;50.862;4.360;2022-11-23T12:03:02;7.47;;;1.50;;
20124;SDS011;10223;50.862;4.360;2022-11-23T12:05:37;13.20;;;1.47;;
20124;SDS011;10223;50.862;4.360;2022-11-23T12:08:10;4.93;;;1.50;;
20124;SDS011;10223;50.862;4.360;2022-11-23T12:10:42;4.43;;;1.27;;
20124;SDS011;10223;50.862;4.360;2022-11-23T12:13:15;6.03;;;1.50;;
20124;SDS011;10223;50.862;4.360;2022-11-23T12:15:44;9.20;;;1.57;;
20124;SDS011;10223;50.862;4.360;2022-11-23T12:18:16;4.77;;;1.10;;
20124;SDS011;10223;50.862;4.360;2022-11-23T12:20:54;4.93;;;1.50;;
20124;SDS011;10223;50.862;4.360;2022-11-23T12:23:28;7.20;;;1.50;;
20124;SDS011;10223;50.862;4.360;2022-11-23T12:26:14;6.53;;;1.03;;
20124;SDS011;10223;50.862;4.360;2022-11-23T12:28:53;8.37;;;1.43;;
20124;SDS011;10223;50.862;4.360;2022-11-23T12:31:35;7.30;;;1.57;;
20124;SDS011;10223;50.862;4.360;2022-11-23T12:34:21;2.50;;;1.10;;
20124;SDS011;10223;50.862;4.360;2022-11-23T12:37:10;7.73;;;1.90;;
20124;SDS011;10223;50.862;4.360;2022-11-23T12:40:00;5.23;;;1.63;;
20124;SDS011;10223;50.862;4.360;2022-11-23T12:42:39;5.97;;;1.70;;
20124;SDS011;10223;50.862;4.360;2022-11-23T12:48:14;3.87;;;1.20;;
20124;SDS011;10223;50.862;4.360;2022-11-23T12:50:50;7.50;;;1.83;;
20124;SDS011;10223;50.862;4.360;2022-11-23T12:53:38;6.67;;;1.90;;
20124;SDS011;10223;50.862;4.360;2022-11-23T12:56:13;10.23;;;1.90;;
20124;SDS011;10223;50.862;4.360;2022-11-23T12:58:51;3.17;;;1.20;;
20124;SDS011;10223;50.862;4.360;2022-11-23T13:01:19;8.13;;;1.80;;
20124;SDS011;10223;50.862;4.360;2022-11-23T13:04:07;5.50;;;1.43;;
20124;SDS011;10223;50.862;4.360;2022-11-23T13:06:59;4.60;;;1.73;;
20124;SDS011;10223;50.862;4.360;2022-11-23T13:09:49;4.50;;;1.40;;
20124;SDS011;10223;50.862;4.360;2022-11-23T13:12:33;8.17;;;2.17;;
20124;SDS011;10223;50.862;4.360;2022-11-23T13:18:12;3.30;;;1.00;;
20124;SDS011;10223;50.862;4.360;2022-11-23T13:21:02;6.37;;;1.87;;
20124;SDS011;10223;50.862;4.360;2022-11-23T13:23:38;6.63;;;1.33;;
20124;SDS011;10223;50.862;4.360;2022-11-23T13:26:12;4.60;;;1.30;;
20124;SDS011;10223;50.862;4.360;2022-11-23T13:28:40;7.53;;;1.67;;
20124;SDS011;10223;50.862;4.360;2022-11-23T13:31:20;8.17;;;1.70;;
20124;SDS011;10223;50.862;4.360;2022-11-23T13:33:49;5.97;;;1.67;;
20124;SDS011;10223;50.862;4.360;2022-11-23T13:36:33;4.37;;;1.70;;
20124;SDS011;10223;50.862;4.360;2022-11-23T13:42:28;2.50;;;1.20;;
20124;SDS011;10223;50.862;4.360;2022-11-23T13:45:20;5.63;;;1.40;;
20124;SDS011;10223;50.862;4.360;2022-11-23T13:48:11;4.20;;;1.20;;
20124;SDS011;10223;50.862;4.360;2022-11-23T13:50:58;4.37;;;1.43;;
20124;SDS011;10223;50.862;4.360;2022-11-23T13:53:28;3.10;;;1.33;;
20124;SDS011;10223;50.862;4.360;2022-11-23T13:55:58;2.43;;;1.40;;
20124;SDS011;10223;50.862;4.360;2022-11-23T13:58:48;8.67;;;2.00;;
20124;SDS011;10223;50.862;4.360;2022-11-23T14:04:21;3.57;;;1.50;;
20124;SDS011;10223;50.862;4.360;2022-11-23T14:06:49;9.20;;;1.30;;
20124;SDS011;10223;50.862;4.360;2022-11-23T14:09:22;6.53;;;1.70;;
20124;SDS011;10223;50.862;4.360;2022-11-23T14:11:56;8.63;;;1.70;;
20124;SDS011;10223;50.862;4.360;2022-11-23T14:14:30;3.23;;;1.53;;
20124;SDS011;10223;50.862;4.360;2022-11-23T14:20:09;4.77;;;1.77;;
20124;SDS011;10223;50.862;4.360;2022-11-23T14:22:57;4.50;;;1.73;;
20124;SDS011;10223;50.862;4.360;2022-11-23T14:25:38;3.57;;;1.70;;
20124;SDS011;10223;50.862;4.360;2022-11-23T14:28:17;3.17;;;1.40;;
20124;SDS011;10223;50.862;4.360;2022-11-23T14:30:55;5.47;;;2.00;;
20124;SDS011;10223;50.862;4.360;2022-11-23T14:33:34;3.00;;;1.57;;
20124;SDS011;10223;50.862;4.360;2022-11-23T14:36:10;4.87;;;1.37;;
20124;SDS011;10223;50.862;4.360;2022-11-23T14:38:56;5.37;;;1.63;;
20124;SDS011;10223;50.862;4.360;2022-11-23T14:41:38;6.07;;;1.67;;
20124;SDS011;10223;50.862;4.360;2022-11-23T14:44:08;5.63;;;2.00;;
20124;SDS011;10223;50.862;4.360;2022-11-23T14:46:52;3.90;;;1.70;;
20124;SDS011;10223;50.862;4.360;2022-11-23T14:49:25;5.43;;;1.90;;
20124;SDS011;10223;50.862;4.360;2022-11-23T14:51:54;5.30;;;1.77;;
20124;SDS011;10223;50.862;4.360;2022-11-23T14:54:21;8.70;;;2.07;;
20124;SDS011;10223;50.862;4.360;2022-11-23T14:56:49;5.90;;;2.20;;
20124;SDS011;10223;50.862;4.360;2022-11-23T14:59:19;3.83;;;1.23;;
20124;SDS011;10223;50.862;4.360;2022-11-23T15:01:50;5.20;;;1.50;;
20124;SDS011;10223;50.862;4.360;2022-11-23T15:04:22;5.97;;;2.00;;
20124;SDS011;10223;50.862;4.360;2022-11-23T15:06:52;1.90;;;1.03;;
20124;SDS011;10223;50.862;4.360;2022-11-23T15:09:30;5.03;;;1.70;;
20124;SDS011;10223;50.862;4.360;2022-11-23T15:12:19;2.27;;;1.40;;